Terminal Aerodrome Forecast
Issued by NWS Pendleton, OR

Home | Current Version | Previous Version | Text Only | Print | Product List | Glossary On
Versions: 1 2 3 4 5 6 7 8 9 10 11 12 13 14 15 16 17
000
FTUS46 KPDT 311700
TAFPDT
TAF
KPDT 311739Z 3118/0118 09007KT P6SM SCT070 BKN090
     FM312100 27009KT P6SM SCT070 BKN110
     FM010600 16005KT 3SM -RA BR BKN035 OVC040
     FM011100 29005KT 2SM RA BR BKN006 OVC012=

USA.gov is the U.S. government's official web portal to all federal, state and local government web resources and services.